Oak Ridge, Louisiana
Current Conditions -  °F | °C
As of 9:15 PM on Monday 26 Jan 2015 (Local Time) from KBQP Reporting Station
Clear Clear  
Wind Chill: 48°   Ceiling: Unl
Heat Index: 48°   Visibility: 10mi
Dew Point: 34°   Wind: 0mph
Humidity: 57%   Direction: NA
Pressure: 30.06"   Gusts: NA
Location:  32.62°N, 91.77°W
Report Text: KBQP 270315Z AUTO 00000KT 10SM CLR 09/01 A3006 RMK AO2 T00900010
Loading
Personal Weather Stations






























Interactive Weather Map New forecast layout! Learn more

10-Day Weather Forecast

Advertisements
Track Severe Weather on mobile